sensor_id;sensor_type;location;lat;lon;timestamp;temperature;humidity
22526;DHT22;11429;50.842;4.386;2022-10-16T00:00:42;14.50;99.90
22526;DHT22;11429;50.842;4.386;2022-10-16T00:03:08;14.50;99.90
22526;DHT22;11429;50.842;4.386;2022-10-16T00:05:42;14.50;99.90
22526;DHT22;11429;50.842;4.386;2022-10-16T00:08:12;14.50;99.90
22526;DHT22;11429;50.842;4.386;2022-10-16T00:10:39;14.50;99.90
22526;DHT22;11429;50.842;4.386;2022-10-16T00:13:05;14.50;99.90
22526;DHT22;11429;50.842;4.386;2022-10-16T00:15:34;14.50;99.90
22526;DHT22;11429;50.842;4.386;2022-10-16T00:18:02;14.50;99.90
22526;DHT22;11429;50.842;4.386;2022-10-16T00:20:28;14.50;99.90
22526;DHT22;11429;50.842;4.386;2022-10-16T00:22:54;14.50;99.90
22526;DHT22;11429;50.842;4.386;2022-10-16T00:25:19;14.50;99.90
22526;DHT22;11429;50.842;4.386;2022-10-16T00:27:45;14.50;99.90
22526;DHT22;11429;50.842;4.386;2022-10-16T00:30:11;14.50;99.90
22526;DHT22;11429;50.842;4.386;2022-10-16T00:32:36;14.40;99.90
22526;DHT22;11429;50.842;4.386;2022-10-16T00:35:02;14.40;99.90
22526;DHT22;11429;50.842;4.386;2022-10-16T00:37:29;14.40;99.90
22526;DHT22;11429;50.842;4.386;2022-10-16T00:39:55;14.40;99.90
22526;DHT22;11429;50.842;4.386;2022-10-16T00:42:22;14.50;99.90
22526;DHT22;11429;50.842;4.386;2022-10-16T00:44:53;14.40;99.90
22526;DHT22;11429;50.842;4.386;2022-10-16T00:47:32;14.40;99.90
22526;DHT22;11429;50.842;4.386;2022-10-16T00:50:30;14.40;99.90
22526;DHT22;11429;50.842;4.386;2022-10-16T00:52:57;14.30;99.90
22526;DHT22;11429;50.842;4.386;2022-10-16T00:55:25;14.30;99.90
22526;DHT22;11429;50.842;4.386;2022-10-16T00:57:51;14.30;99.90
22526;DHT22;11429;50.842;4.386;2022-10-16T01:00:21;14.30;99.90
22526;DHT22;11429;50.842;4.386;2022-10-16T01:02:59;14.30;99.90
22526;DHT22;11429;50.842;4.386;2022-10-16T01:05:36;14.20;99.90
22526;DHT22;11429;50.842;4.386;2022-10-16T01:08:28;14.20;99.90
22526;DHT22;11429;50.842;4.386;2022-10-16T01:11:05;14.10;99.90
22526;DHT22;11429;50.842;4.386;2022-10-16T01:13:38;14.20;99.90
22526;DHT22;11429;50.842;4.386;2022-10-16T01:16:21;14.20;99.90
22526;DHT22;11429;50.842;4.386;2022-10-16T01:18:57;14.20;99.90
22526;DHT22;11429;50.842;4.386;2022-10-16T01:21:28;14.20;99.90
22526;DHT22;11429;50.842;4.386;2022-10-16T01:29:18;14.20;99.90
22526;DHT22;11429;50.842;4.386;2022-10-16T01:31:50;14.20;99.90
22526;DHT22;11429;50.842;4.386;2022-10-16T01:34:29;14.10;99.90
22526;DHT22;11429;50.842;4.386;2022-10-16T01:37:15;14.20;99.90
22526;DHT22;11429;50.842;4.386;2022-10-16T01:39:45;14.10;99.90
22526;DHT22;11429;50.842;4.386;2022-10-16T01:42:19;14.10;99.90
22526;DHT22;11429;50.842;4.386;2022-10-16T01:44:47;14.10;99.90
22526;DHT22;11429;50.842;4.386;2022-10-16T01:47:14;14.10;99.90
22526;DHT22;11429;50.842;4.386;2022-10-16T01:49:41;14.10;99.90
22526;DHT22;11429;50.842;4.386;2022-10-16T01:52:14;14.10;99.90
22526;DHT22;11429;50.842;4.386;2022-10-16T01:54:43;14.00;99.90
22526;DHT22;11429;50.842;4.386;2022-10-16T01:57:11;14.00;99.90
22526;DHT22;11429;50.842;4.386;2022-10-16T01:59:44;14.00;99.90
22526;DHT22;11429;50.842;4.386;2022-10-16T02:02:11;14.00;99.90
22526;DHT22;11429;50.842;4.386;2022-10-16T02:04:44;13.90;99.90
22526;DHT22;11429;50.842;4.386;2022-10-16T02:07:10;14.00;99.90
22526;DHT22;11429;50.842;4.386;2022-10-16T02:09:36;13.90;99.90
22526;DHT22;11429;50.842;4.386;2022-10-16T02:12:09;13.90;99.90
22526;DHT22;11429;50.842;4.386;2022-10-16T02:14:38;13.90;99.90
22526;DHT22;11429;50.842;4.386;2022-10-16T02:17:13;13.90;99.90
22526;DHT22;11429;50.842;4.386;2022-10-16T02:19:39;13.90;99.90
22526;DHT22;11429;50.842;4.386;2022-10-16T02:22:08;13.90;99.90
22526;DHT22;11429;50.842;4.386;2022-10-16T02:24:54;13.90;99.90
22526;DHT22;11429;50.842;4.386;2022-10-16T02:27:35;13.90;99.90
22526;DHT22;11429;50.842;4.386;2022-10-16T02:32:41;13.90;99.90
22526;DHT22;11429;50.842;4.386;2022-10-16T02:35:08;13.90;99.90
22526;DHT22;11429;50.842;4.386;2022-10-16T02:37:34;14.00;99.90
22526;DHT22;11429;50.842;4.386;2022-10-16T02:40:01;14.00;99.90
22526;DHT22;11429;50.842;4.386;2022-10-16T02:42:35;14.00;99.90
22526;DHT22;11429;50.842;4.386;2022-10-16T02:45:02;14.00;99.90
22526;DHT22;11429;50.842;4.386;2022-10-16T02:47:29;13.90;99.90
22526;DHT22;11429;50.842;4.386;2022-10-16T02:49:54;13.90;99.90
22526;DHT22;11429;50.842;4.386;2022-10-16T02:52:20;13.90;99.90
22526;DHT22;11429;50.842;4.386;2022-10-16T02:54:46;13.90;99.90
22526;DHT22;11429;50.842;4.386;2022-10-16T02:57:11;13.90;99.90
22526;DHT22;11429;50.842;4.386;2022-10-16T02:59:37;13.90;99.90
22526;DHT22;11429;50.842;4.386;2022-10-16T03:02:03;13.90;99.90
22526;DHT22;11429;50.842;4.386;2022-10-16T03:04:29;13.90;99.90
22526;DHT22;11429;50.842;4.386;2022-10-16T03:06:54;14.00;99.90
22526;DHT22;11429;50.842;4.386;2022-10-16T03:09:20;13.90;99.90
22526;DHT22;11429;50.842;4.386;2022-10-16T03:11:45;13.90;99.90
22526;DHT22;11429;50.842;4.386;2022-10-16T03:14:11;13.90;99.90
22526;DHT22;11429;50.842;4.386;2022-10-16T03:16:37;13.90;99.90
22526;DHT22;11429;50.842;4.386;2022-10-16T03:19:02;13.90;99.90
22526;DHT22;11429;50.842;4.386;2022-10-16T03:21:28;13.90;99.90
22526;DHT22;11429;50.842;4.386;2022-10-16T03:23:54;13.90;99.90
22526;DHT22;11429;50.842;4.386;2022-10-16T03:26:19;13.90;99.90
22526;DHT22;11429;50.842;4.386;2022-10-16T03:28:45;13.90;99.90
22526;DHT22;11429;50.842;4.386;2022-10-16T03:31:11;13.90;99.90
22526;DHT22;11429;50.842;4.386;2022-10-16T03:33:36;13.90;99.90
22526;DHT22;11429;50.842;4.386;2022-10-16T03:36:02;13.90;99.90
22526;DHT22;11429;50.842;4.386;2022-10-16T03:38:28;13.90;99.90
22526;DHT22;11429;50.842;4.386;2022-10-16T03:40:53;14.00;99.90
22526;DHT22;11429;50.842;4.386;2022-10-16T03:43:19;13.90;99.90
22526;DHT22;11429;50.842;4.386;2022-10-16T03:45:45;13.90;99.90
22526;DHT22;11429;50.842;4.386;2022-10-16T03:48:11;13.90;99.90
22526;DHT22;11429;50.842;4.386;2022-10-16T03:50:36;13.90;99.90
22526;DHT22;11429;50.842;4.386;2022-10-16T03:53:02;13.90;99.90
22526;DHT22;11429;50.842;4.386;2022-10-16T03:55:28;13.90;99.90
22526;DHT22;11429;50.842;4.386;2022-10-16T03:57:54;13.90;99.90
22526;DHT22;11429;50.842;4.386;2022-10-16T04:00:19;13.90;99.90
22526;DHT22;11429;50.842;4.386;2022-10-16T04:02:45;13.80;99.90
22526;DHT22;11429;50.842;4.386;2022-10-16T04:05:10;13.80;99.90
22526;DHT22;11429;50.842;4.386;2022-10-16T04:07:36;13.80;99.90
22526;DHT22;11429;50.842;4.386;2022-10-16T04:10:06;13.90;99.90
22526;DHT22;11429;50.842;4.386;2022-10-16T04:12:31;13.90;99.90
22526;DHT22;11429;50.842;4.386;2022-10-16T04:14:57;13.90;99.90
22526;DHT22;11429;50.842;4.386;2022-10-16T04:17:23;13.80;99.90
22526;DHT22;11429;50.842;4.386;2022-10-16T04:19:48;13.80;99.90
22526;DHT22;11429;50.842;4.386;2022-10-16T04:22:14;13.80;99.90
22526;DHT22;11429;50.842;4.386;2022-10-16T04:24:40;13.80;99.90
22526;DHT22;11429;50.842;4.386;2022-10-16T04:27:05;13.80;99.90
22526;DHT22;11429;50.842;4.386;2022-10-16T04:29:31;13.80;99.90
22526;DHT22;11429;50.842;4.386;2022-10-16T04:31:57;13.80;99.90
22526;DHT22;11429;50.842;4.386;2022-10-16T04:34:22;13.80;99.90
22526;DHT22;11429;50.842;4.386;2022-10-16T04:36:48;13.90;99.90
22526;DHT22;11429;50.842;4.386;2022-10-16T04:39:17;13.80;99.90
22526;DHT22;11429;50.842;4.386;2022-10-16T04:41:42;13.80;99.90
22526;DHT22;11429;50.842;4.386;2022-10-16T04:44:08;13.90;99.90
22526;DHT22;11429;50.842;4.386;2022-10-16T04:46:34;13.80;99.90
22526;DHT22;11429;50.842;4.386;2022-10-16T04:48:59;13.80;99.90
22526;DHT22;11429;50.842;4.386;2022-10-16T04:51:25;13.80;99.90
22526;DHT22;11429;50.842;4.386;2022-10-16T04:53:53;13.80;99.90
22526;DHT22;11429;50.842;4.386;2022-10-16T04:56:20;13.70;99.90
22526;DHT22;11429;50.842;4.386;2022-10-16T04:58:47;13.70;99.90
22526;DHT22;11429;50.842;4.386;2022-10-16T05:01:13;13.70;99.90
22526;DHT22;11429;50.842;4.386;2022-10-16T05:03:38;13.70;99.90
22526;DHT22;11429;50.842;4.386;2022-10-16T05:06:07;13.70;99.90
22526;DHT22;11429;50.842;4.386;2022-10-16T05:08:33;13.70;99.90
22526;DHT22;11429;50.842;4.386;2022-10-16T05:10:59;13.80;99.90
22526;DHT22;11429;50.842;4.386;2022-10-16T05:13:25;13.90;99.90
22526;DHT22;11429;50.842;4.386;2022-10-16T05:15:51;13.80;99.90
22526;DHT22;11429;50.842;4.386;2022-10-16T05:18:17;13.70;99.90
22526;DHT22;11429;50.842;4.386;2022-10-16T05:20:42;13.70;99.90
22526;DHT22;11429;50.842;4.386;2022-10-16T05:23:08;13.70;99.90
22526;DHT22;11429;50.842;4.386;2022-10-16T05:25:36;13.70;99.90
22526;DHT22;11429;50.842;4.386;2022-10-16T05:28:01;13.70;99.90
22526;DHT22;11429;50.842;4.386;2022-10-16T05:30:27;13.70;99.90
22526;DHT22;11429;50.842;4.386;2022-10-16T05:32:53;13.70;99.90
22526;DHT22;11429;50.842;4.386;2022-10-16T05:35:19;13.70;99.90
22526;DHT22;11429;50.842;4.386;2022-10-16T05:37:45;13.60;99.90
22526;DHT22;11429;50.842;4.386;2022-10-16T05:40:11;13.60;99.90
22526;DHT22;11429;50.842;4.386;2022-10-16T05:42:37;13.60;99.90
22526;DHT22;11429;50.842;4.386;2022-10-16T05:45:04;13.60;99.90
22526;DHT22;11429;50.842;4.386;2022-10-16T05:47:30;13.60;99.90
22526;DHT22;11429;50.842;4.386;2022-10-16T05:49:56;13.50;99.90
22526;DHT22;11429;50.842;4.386;2022-10-16T05:52:21;13.60;99.90
22526;DHT22;11429;50.842;4.386;2022-10-16T05:54:47;13.60;99.90
22526;DHT22;11429;50.842;4.386;2022-10-16T05:57:13;13.50;99.90
22526;DHT22;11429;50.842;4.386;2022-10-16T05:59:38;13.60;99.90
22526;DHT22;11429;50.842;4.386;2022-10-16T06:02:04;13.50;99.90
22526;DHT22;11429;50.842;4.386;2022-10-16T06:04:29;13.60;99.90
22526;DHT22;11429;50.842;4.386;2022-10-16T06:06:58;13.60;99.90
22526;DHT22;11429;50.842;4.386;2022-10-16T06:09:25;13.60;99.90
22526;DHT22;11429;50.842;4.386;2022-10-16T06:11:51;13.70;99.90
22526;DHT22;11429;50.842;4.386;2022-10-16T06:14:17;13.60;99.90
22526;DHT22;11429;50.842;4.386;2022-10-16T06:16:42;13.70;99.90
22526;DHT22;11429;50.842;4.386;2022-10-16T06:19:08;13.60;99.90
22526;DHT22;11429;50.842;4.386;2022-10-16T06:21:34;13.70;99.90
22526;DHT22;11429;50.842;4.386;2022-10-16T06:24:00;13.70;99.90
22526;DHT22;11429;50.842;4.386;2022-10-16T06:26:28;13.60;99.90
22526;DHT22;11429;50.842;4.386;2022-10-16T06:28:56;13.60;99.90
22526;DHT22;11429;50.842;4.386;2022-10-16T06:31:22;13.60;99.90
22526;DHT22;11429;50.842;4.386;2022-10-16T06:33:51;13.70;99.90
22526;DHT22;11429;50.842;4.386;2022-10-16T06:36:17;13.60;99.90
22526;DHT22;11429;50.842;4.386;2022-10-16T06:38:44;13.70;99.90
22526;DHT22;11429;50.842;4.386;2022-10-16T06:41:13;13.70;99.90
22526;DHT22;11429;50.842;4.386;2022-10-16T06:43:39;13.70;99.90
22526;DHT22;11429;50.842;4.386;2022-10-16T06:46:06;13.80;99.90
22526;DHT22;11429;50.842;4.386;2022-10-16T06:48:36;13.90;99.90
22526;DHT22;11429;50.842;4.386;2022-10-16T06:51:13;13.90;99.90
22526;DHT22;11429;50.842;4.386;2022-10-16T06:53:47;14.10;99.90
22526;DHT22;11429;50.842;4.386;2022-10-16T06:56:22;14.20;99.90
22526;DHT22;11429;50.842;4.386;2022-10-16T06:58:48;14.30;99.90
22526;DHT22;11429;50.842;4.386;2022-10-16T07:01:16;14.50;99.90
22526;DHT22;11429;50.842;4.386;2022-10-16T07:03:43;14.60;99.90
22526;DHT22;11429;50.842;4.386;2022-10-16T07:06:11;14.60;99.90
22526;DHT22;11429;50.842;4.386;2022-10-16T07:08:40;14.60;99.90
22526;DHT22;11429;50.842;4.386;2022-10-16T07:11:12;14.60;99.90
22526;DHT22;11429;50.842;4.386;2022-10-16T07:13:39;14.60;99.90
22526;DHT22;11429;50.842;4.386;2022-10-16T07:18:35;14.60;99.90
22526;DHT22;11429;50.842;4.386;2022-10-16T07:21:09;14.70;99.90
22526;DHT22;11429;50.842;4.386;2022-10-16T07:23:34;14.70;99.90
22526;DHT22;11429;50.842;4.386;2022-10-16T07:26:00;14.60;99.90
22526;DHT22;11429;50.842;4.386;2022-10-16T07:28:26;14.60;99.90
22526;DHT22;11429;50.842;4.386;2022-10-16T07:30:52;14.60;99.90
22526;DHT22;11429;50.842;4.386;2022-10-16T07:33:18;14.70;99.90
22526;DHT22;11429;50.842;4.386;2022-10-16T07:35:54;14.80;99.90
22526;DHT22;11429;50.842;4.386;2022-10-16T07:38:20;14.70;99.90
22526;DHT22;11429;50.842;4.386;2022-10-16T07:40:47;14.70;99.90
22526;DHT22;11429;50.842;4.386;2022-10-16T07:43:13;14.70;99.90
22526;DHT22;11429;50.842;4.386;2022-10-16T07:45:47;14.80;99.90
22526;DHT22;11429;50.842;4.386;2022-10-16T07:48:14;14.80;99.90
22526;DHT22;11429;50.842;4.386;2022-10-16T07:50:39;14.90;99.90
22526;DHT22;11429;50.842;4.386;2022-10-16T07:53:05;15.00;99.90
22526;DHT22;11429;50.842;4.386;2022-10-16T07:55:31;15.00;99.90
22526;DHT22;11429;50.842;4.386;2022-10-16T07:57:56;15.00;99.90
22526;DHT22;11429;50.842;4.386;2022-10-16T08:00:22;15.10;99.90
22526;DHT22;11429;50.842;4.386;2022-10-16T08:02:47;15.20;99.90
22526;DHT22;11429;50.842;4.386;2022-10-16T08:05:13;15.10;99.90
22526;DHT22;11429;50.842;4.386;2022-10-16T08:07:39;15.10;99.90
22526;DHT22;11429;50.842;4.386;2022-10-16T08:10:04;15.20;99.90
22526;DHT22;11429;50.842;4.386;2022-10-16T08:12:30;15.20;99.90
22526;DHT22;11429;50.842;4.386;2022-10-16T08:14:56;15.20;99.90
22526;DHT22;11429;50.842;4.386;2022-10-16T08:17:21;15.30;99.90
22526;DHT22;11429;50.842;4.386;2022-10-16T08:19:47;15.40;99.90
22526;DHT22;11429;50.842;4.386;2022-10-16T08:22:16;15.50;99.90
22526;DHT22;11429;50.842;4.386;2022-10-16T08:24:42;15.50;99.90
22526;DHT22;11429;50.842;4.386;2022-10-16T08:27:07;15.60;99.90
22526;DHT22;11429;50.842;4.386;2022-10-16T08:29:34;15.60;99.90
22526;DHT22;11429;50.842;4.386;2022-10-16T08:32:00;15.60;99.90
22526;DHT22;11429;50.842;4.386;2022-10-16T08:34:25;15.60;99.90
22526;DHT22;11429;50.842;4.386;2022-10-16T08:36:53;15.60;99.90
22526;DHT22;11429;50.842;4.386;2022-10-16T08:39:20;15.60;99.90
22526;DHT22;11429;50.842;4.386;2022-10-16T08:47:18;15.80;99.90
22526;DHT22;11429;50.842;4.386;2022-10-16T08:52:22;15.90;99.90
22526;DHT22;11429;50.842;4.386;2022-10-16T08:54:51;16.00;99.90
22526;DHT22;11429;50.842;4.386;2022-10-16T08:57:24;16.20;99.90
22526;DHT22;11429;50.842;4.386;2022-10-16T08:59:51;16.20;99.90
22526;DHT22;11429;50.842;4.386;2022-10-16T09:02:49;16.10;99.90
22526;DHT22;11429;50.842;4.386;2022-10-16T09:08:55;16.30;99.90
22526;DHT22;11429;50.842;4.386;2022-10-16T09:16:46;16.60;99.90
22526;DHT22;11429;50.842;4.386;2022-10-16T09:19:36;16.80;99.90
22526;DHT22;11429;50.842;4.386;2022-10-16T09:22:12;17.20;99.90
22526;DHT22;11429;50.842;4.386;2022-10-16T09:24:39;17.20;99.90
22526;DHT22;11429;50.842;4.386;2022-10-16T09:27:06;16.90;99.90
22526;DHT22;11429;50.842;4.386;2022-10-16T09:29:33;16.70;99.90
22526;DHT22;11429;50.842;4.386;2022-10-16T09:32:10;16.80;99.90
22526;DHT22;11429;50.842;4.386;2022-10-16T09:34:42;16.90;99.90
22526;DHT22;11429;50.842;4.386;2022-10-16T09:37:13;17.10;99.90
22526;DHT22;11429;50.842;4.386;2022-10-16T09:39:47;17.60;99.90
22526;DHT22;11429;50.842;4.386;2022-10-16T09:42:27;18.30;99.90
22526;DHT22;11429;50.842;4.386;2022-10-16T09:44:57;18.60;99.90
22526;DHT22;11429;50.842;4.386;2022-10-16T09:47:25;19.10;99.90
22526;DHT22;11429;50.842;4.386;2022-10-16T09:50:05;20.60;99.90
22526;DHT22;11429;50.842;4.386;2022-10-16T09:52:44;22.50;99.90
22526;DHT22;11429;50.842;4.386;2022-10-16T09:55:16;22.80;99.90
22526;DHT22;11429;50.842;4.386;2022-10-16T09:57:52;23.80;99.90
22526;DHT22;11429;50.842;4.386;2022-10-16T10:00:19;25.10;99.90
22526;DHT22;11429;50.842;4.386;2022-10-16T10:02:46;25.90;99.90
22526;DHT22;11429;50.842;4.386;2022-10-16T10:05:41;25.20;99.90
22526;DHT22;11429;50.842;4.386;2022-10-16T10:08:15;25.20;99.90
22526;DHT22;11429;50.842;4.386;2022-10-16T10:10:43;24.80;99.90
22526;DHT22;11429;50.842;4.386;2022-10-16T10:13:21;24.70;99.90
22526;DHT22;11429;50.842;4.386;2022-10-16T10:15:48;23.90;99.90
22526;DHT22;11429;50.842;4.386;2022-10-16T10:18:19;24.60;99.90
22526;DHT22;11429;50.842;4.386;2022-10-16T10:20:45;25.10;99.90
22526;DHT22;11429;50.842;4.386;2022-10-16T10:23:23;26.40;99.90
22526;DHT22;11429;50.842;4.386;2022-10-16T10:26:17;27.20;99.90
22526;DHT22;11429;50.842;4.386;2022-10-16T10:29:01;28.70;99.90
22526;DHT22;11429;50.842;4.386;2022-10-16T10:31:37;27.70;99.90
22526;DHT22;11429;50.842;4.386;2022-10-16T10:37:04;24.20;99.90
22526;DHT22;11429;50.842;4.386;2022-10-16T10:39:43;22.80;99.90
22526;DHT22;11429;50.842;4.386;2022-10-16T10:45:22;23.20;99.90
22526;DHT22;11429;50.842;4.386;2022-10-16T10:48:12;23.50;99.90
22526;DHT22;11429;50.842;4.386;2022-10-16T10:51:11;23.10;99.90
22526;DHT22;11429;50.842;4.386;2022-10-16T11:01:56;22.40;99.90
22526;DHT22;11429;50.842;4.386;2022-10-16T11:07:15;22.70;99.90
22526;DHT22;11429;50.842;4.386;2022-10-16T11:09:51;22.40;99.90
22526;DHT22;11429;50.842;4.386;2022-10-16T11:12:24;21.70;99.90
22526;DHT22;11429;50.842;4.386;2022-10-16T11:14:56;21.60;99.90
22526;DHT22;11429;50.842;4.386;2022-10-16T11:20:24;22.20;99.90
22526;DHT22;11429;50.842;4.386;2022-10-16T11:22:55;22.80;99.90
22526;DHT22;11429;50.842;4.386;2022-10-16T11:25:25;23.70;99.90
22526;DHT22;11429;50.842;4.386;2022-10-16T11:31:47;22.60;99.90
22526;DHT22;11429;50.842;4.386;2022-10-16T11:34:09;22.30;99.90
22526;DHT22;11429;50.842;4.386;2022-10-16T11:36:49;23.00;99.90
22526;DHT22;11429;50.842;4.386;2022-10-16T11:39:22;23.10;99.90
22526;DHT22;11429;50.842;4.386;2022-10-16T11:47:51;23.70;99.90
22526;DHT22;11429;50.842;4.386;2022-10-16T11:53:21;22.30;99.90
22526;DHT22;11429;50.842;4.386;2022-10-16T11:55:49;21.30;99.90
22526;DHT22;11429;50.842;4.386;2022-10-16T11:58:38;21.20;99.90
22526;DHT22;11429;50.842;4.386;2022-10-16T12:06:12;20.30;99.90
22526;DHT22;11429;50.842;4.386;2022-10-16T12:08:40;20.50;99.90
22526;DHT22;11429;50.842;4.386;2022-10-16T12:11:34;20.50;99.90
22526;DHT22;11429;50.842;4.386;2022-10-16T12:16:55;20.20;99.90
22526;DHT22;11429;50.842;4.386;2022-10-16T12:19:23;20.30;99.90
22526;DHT22;11429;50.842;4.386;2022-10-16T12:21:50;20.50;99.90
22526;DHT22;11429;50.842;4.386;2022-10-16T12:26:57;19.90;99.90
22526;DHT22;11429;50.842;4.386;2022-10-16T12:29:40;20.00;99.90
22526;DHT22;11429;50.842;4.386;2022-10-16T12:34:53;19.90;99.90
22526;DHT22;11429;50.842;4.386;2022-10-16T12:37:36;20.00;99.90
22526;DHT22;11429;50.842;4.386;2022-10-16T12:42:49;20.00;99.90
22526;DHT22;11429;50.842;4.386;2022-10-16T12:45:34;19.80;99.90
22526;DHT22;11429;50.842;4.386;2022-10-16T12:48:17;19.90;99.90
22526;DHT22;11429;50.842;4.386;2022-10-16T12:50:43;19.90;99.90
22526;DHT22;11429;50.842;4.386;2022-10-16T12:53:22;19.90;99.90
22526;DHT22;11429;50.842;4.386;2022-10-16T12:58:35;20.00;99.90
22526;DHT22;11429;50.842;4.386;2022-10-16T13:01:23;19.80;99.90
22526;DHT22;11429;50.842;4.386;2022-10-16T13:12:49;20.00;99.90
22526;DHT22;11429;50.842;4.386;2022-10-16T13:18:01;19.90;99.90
22526;DHT22;11429;50.842;4.386;2022-10-16T13:20:38;20.10;99.90
22526;DHT22;11429;50.842;4.386;2022-10-16T13:23:12;20.10;99.90
22526;DHT22;11429;50.842;4.386;2022-10-16T13:28:39;20.20;99.90
22526;DHT22;11429;50.842;4.386;2022-10-16T13:31:15;20.10;99.90
22526;DHT22;11429;50.842;4.386;2022-10-16T13:33:46;20.10;99.90
22526;DHT22;11429;50.842;4.386;2022-10-16T13:36:27;20.50;99.90
22526;DHT22;11429;50.842;4.386;2022-10-16T13:42:42;20.40;99.90
22526;DHT22;11429;50.842;4.386;2022-10-16T13:44:50;20.00;99.90
22526;DHT22;11429;50.842;4.386;2022-10-16T13:47:28;20.00;99.90
22526;DHT22;11429;50.842;4.386;2022-10-16T13:50:15;20.10;99.90
22526;DHT22;11429;50.842;4.386;2022-10-16T13:52:41;20.60;99.90
22526;DHT22;11429;50.842;4.386;2022-10-16T13:55:15;20.40;99.90
22526;DHT22;11429;50.842;4.386;2022-10-16T13:57:42;20.10;99.90
22526;DHT22;11429;50.842;4.386;2022-10-16T14:02:44;19.50;99.90
22526;DHT22;11429;50.842;4.386;2022-10-16T14:05:10;19.50;99.90
22526;DHT22;11429;50.842;4.386;2022-10-16T14:07:36;19.70;99.90
22526;DHT22;11429;50.842;4.386;2022-10-16T14:10:18;19.60;99.90
22526;DHT22;11429;50.842;4.386;2022-10-16T14:12:53;19.60;99.90
22526;DHT22;11429;50.842;4.386;2022-10-16T14:15:19;19.70;99.90
22526;DHT22;11429;50.842;4.386;2022-10-16T14:17:48;19.60;99.90
22526;DHT22;11429;50.842;4.386;2022-10-16T14:20:16;19.50;99.90
22526;DHT22;11429;50.842;4.386;2022-10-16T14:22:42;19.50;99.90
22526;DHT22;11429;50.842;4.386;2022-10-16T14:28:25;19.50;99.90
22526;DHT22;11429;50.842;4.386;2022-10-16T14:30:57;19.50;99.90
22526;DHT22;11429;50.842;4.386;2022-10-16T14:36:11;19.70;99.90
22526;DHT22;11429;50.842;4.386;2022-10-16T14:38:38;19.60;99.90
22526;DHT22;11429;50.842;4.386;2022-10-16T14:41:05;19.50;99.90
22526;DHT22;11429;50.842;4.386;2022-10-16T14:46:03;20.10;99.90
22526;DHT22;11429;50.842;4.386;2022-10-16T14:48:29;20.00;99.90
22526;DHT22;11429;50.842;4.386;2022-10-16T14:50:55;19.70;99.90
22526;DHT22;11429;50.842;4.386;2022-10-16T14:53:21;19.50;99.90
22526;DHT22;11429;50.842;4.386;2022-10-16T14:55:47;19.50;99.90
22526;DHT22;11429;50.842;4.386;2022-10-16T14:58:24;19.90;99.90
22526;DHT22;11429;50.842;4.386;2022-10-16T15:00:51;20.00;99.90
22526;DHT22;11429;50.842;4.386;2022-10-16T15:03:17;20.10;99.90
22526;DHT22;11429;50.842;4.386;2022-10-16T15:05:43;19.90;99.90
22526;DHT22;11429;50.842;4.386;2022-10-16T15:08:09;19.50;99.90
22526;DHT22;11429;50.842;4.386;2022-10-16T15:10:42;19.40;99.90
22526;DHT22;11429;50.842;4.386;2022-10-16T15:13:12;19.20;99.90
22526;DHT22;11429;50.842;4.386;2022-10-16T15:15:47;19.10;99.90
22526;DHT22;11429;50.842;4.386;2022-10-16T15:18:14;19.00;99.90
22526;DHT22;11429;50.842;4.386;2022-10-16T15:20:47;19.20;99.90
22526;DHT22;11429;50.842;4.386;2022-10-16T15:23:15;19.30;99.90
22526;DHT22;11429;50.842;4.386;2022-10-16T15:25:49;19.30;99.90
22526;DHT22;11429;50.842;4.386;2022-10-16T15:28:16;19.20;99.90
22526;DHT22;11429;50.842;4.386;2022-10-16T15:30:43;19.10;99.90
22526;DHT22;11429;50.842;4.386;2022-10-16T15:33:21;19.10;99.90
22526;DHT22;11429;50.842;4.386;2022-10-16T15:35:49;19.20;99.90
22526;DHT22;11429;50.842;4.386;2022-10-16T15:38:16;19.30;99.90
22526;DHT22;11429;50.842;4.386;2022-10-16T15:40:42;19.50;99.90
22526;DHT22;11429;50.842;4.386;2022-10-16T15:43:08;19.50;99.90
22526;DHT22;11429;50.842;4.386;2022-10-16T15:45:34;19.30;99.90
22526;DHT22;11429;50.842;4.386;2022-10-16T15:48:00;19.10;99.90
22526;DHT22;11429;50.842;4.386;2022-10-16T15:50:26;19.10;99.90
22526;DHT22;11429;50.842;4.386;2022-10-16T15:52:52;19.00;99.90
22526;DHT22;11429;50.842;4.386;2022-10-16T15:55:18;19.00;99.90
22526;DHT22;11429;50.842;4.386;2022-10-16T15:57:44;18.80;99.90
22526;DHT22;11429;50.842;4.386;2022-10-16T16:00:17;18.60;99.90
22526;DHT22;11429;50.842;4.386;2022-10-16T16:02:43;18.60;99.90
22526;DHT22;11429;50.842;4.386;2022-10-16T16:05:14;18.50;99.90
22526;DHT22;11429;50.842;4.386;2022-10-16T16:07:40;18.50;99.90
22526;DHT22;11429;50.842;4.386;2022-10-16T16:10:07;18.70;99.90
22526;DHT22;11429;50.842;4.386;2022-10-16T16:12:33;18.90;99.90
22526;DHT22;11429;50.842;4.386;2022-10-16T16:14:59;18.80;99.90
22526;DHT22;11429;50.842;4.386;2022-10-16T16:17:25;18.80;99.90
22526;DHT22;11429;50.842;4.386;2022-10-16T16:19:51;18.90;99.90
22526;DHT22;11429;50.842;4.386;2022-10-16T16:22:17;18.80;99.90
22526;DHT22;11429;50.842;4.386;2022-10-16T16:24:43;18.70;99.90
22526;DHT22;11429;50.842;4.386;2022-10-16T16:27:09;18.70;99.90
22526;DHT22;11429;50.842;4.386;2022-10-16T16:29:35;18.60;99.90
22526;DHT22;11429;50.842;4.386;2022-10-16T16:32:01;18.50;99.90
22526;DHT22;11429;50.842;4.386;2022-10-16T16:34:27;18.40;99.90
22526;DHT22;11429;50.842;4.386;2022-10-16T16:36:54;18.40;99.90
22526;DHT22;11429;50.842;4.386;2022-10-16T16:39:21;18.40;99.90
22526;DHT22;11429;50.842;4.386;2022-10-16T16:41:47;18.40;99.90
22526;DHT22;11429;50.842;4.386;2022-10-16T16:44:13;18.40;99.90
22526;DHT22;11429;50.842;4.386;2022-10-16T16:46:39;18.40;99.90
22526;DHT22;11429;50.842;4.386;2022-10-16T16:49:06;18.50;99.90
22526;DHT22;11429;50.842;4.386;2022-10-16T16:51:32;18.60;99.90
22526;DHT22;11429;50.842;4.386;2022-10-16T16:53:59;18.70;99.90
22526;DHT22;11429;50.842;4.386;2022-10-16T16:56:25;18.80;99.90
22526;DHT22;11429;50.842;4.386;2022-10-16T16:58:53;19.10;99.90
22526;DHT22;11429;50.842;4.386;2022-10-16T17:01:20;18.90;99.90
22526;DHT22;11429;50.842;4.386;2022-10-16T17:03:47;18.50;99.90
22526;DHT22;11429;50.842;4.386;2022-10-16T17:06:15;18.30;99.90
22526;DHT22;11429;50.842;4.386;2022-10-16T17:08:41;18.30;99.90
22526;DHT22;11429;50.842;4.386;2022-10-16T17:11:13;18.40;99.90
22526;DHT22;11429;50.842;4.386;2022-10-16T17:13:40;18.40;99.90
22526;DHT22;11429;50.842;4.386;2022-10-16T17:16:06;18.10;99.90
22526;DHT22;11429;50.842;4.386;2022-10-16T17:18:32;18.00;99.90
22526;DHT22;11429;50.842;4.386;2022-10-16T17:20:59;17.40;99.90
22526;DHT22;11429;50.842;4.386;2022-10-16T17:23:25;17.50;99.90
22526;DHT22;11429;50.842;4.386;2022-10-16T17:25:51;17.50;99.90
22526;DHT22;11429;50.842;4.386;2022-10-16T17:28:16;17.40;99.90
22526;DHT22;11429;50.842;4.386;2022-10-16T17:30:42;17.10;99.90